FOD weather

Fort Dodge Regional Airport
Fort Dodge, Iowa, United States

Public forecast

Using degrees Fahrenheit for public forecast. Weather courtesy of forecast.io.

Current aviation weather report (METAR) for Fort Dodge Regional Airport

Retrieved 2020/04/04 06:56 UTC (46 minutes ago):

KFOD 040656Z AUTO 33005KT 10SM OVC012 M03/M06 A3026 RMK AO2 SLP292 T10331056 FZRANO

Aviation forecast (TAF) for Fort Dodge Regional Airport

Retrieved 2020/04/04 06:22 UTC (1 hour ago):

TAF KFOD 040520Z 0406/0506 35009KT P6SM OVC014 FM040730 35006KT P6SM SCT015 FM041400 04006KT P6SM FEW250